createdAt,value
2017-09-19T00:01:42.868Z,9.00
2017-09-19T00:04:09.327Z,9.00
2017-09-19T00:06:35.755Z,9.10
2017-09-19T00:09:02.307Z,9.00
2017-09-19T00:11:28.852Z,9.00
2017-09-19T00:13:56.761Z,9.10
2017-09-19T00:16:23.217Z,9.10
2017-09-19T00:18:49.676Z,9.20
2017-09-19T00:21:16.119Z,9.20
2017-09-19T00:23:42.536Z,9.10
2017-09-19T00:26:08.928Z,9.10
2017-09-19T00:28:35.356Z,9.00
2017-09-19T00:31:02.523Z,8.80
2017-09-19T00:33:28.959Z,8.80
2017-09-19T00:35:55.390Z,8.80
2017-09-19T00:38:21.847Z,8.80
2017-09-19T00:40:49.367Z,8.80
2017-09-19T00:43:16.023Z,8.90
2017-09-19T00:45:42.453Z,9.00
2017-09-19T00:48:09.071Z,9.10
2017-09-19T00:50:35.535Z,9.10
2017-09-19T00:53:01.972Z,9.00
2017-09-19T00:55:28.509Z,9.00
2017-09-19T00:58:03.101Z,8.90
2017-09-19T01:00:30.499Z,9.00
2017-09-19T01:02:56.977Z,8.90
2017-09-19T01:05:24.147Z,9.10
2017-09-19T01:07:50.594Z,9.10
2017-09-19T01:10:17.027Z,9.20
2017-09-19T01:12:43.458Z,9.20
2017-09-19T01:15:09.924Z,9.30
2017-09-19T01:17:36.376Z,9.20
2017-09-19T01:20:02.847Z,9.20
2017-09-19T01:22:29.532Z,9.10
2017-09-19T01:24:56.812Z,9.10
2017-09-19T01:27:24.039Z,9.10
2017-09-19T01:29:50.518Z,9.10
2017-09-19T01:32:17.007Z,9.10
2017-09-19T01:34:44.947Z,9.10
2017-09-19T01:37:11.367Z,9.10
2017-09-19T01:39:39.802Z,9.10
2017-09-19T01:42:08.826Z,8.90
2017-09-19T01:44:35.265Z,8.90
2017-09-19T01:47:01.661Z,9.00
2017-09-19T01:49:28.146Z,9.00
2017-09-19T01:51:54.563Z,9.00
2017-09-19T01:54:20.962Z,9.10
2017-09-19T01:56:48.862Z,9.30
2017-09-19T01:59:15.290Z,9.30
2017-09-19T02:01:41.706Z,9.30
2017-09-19T02:04:08.887Z,9.40
2017-09-19T02:06:35.306Z,9.40
2017-09-19T02:09:02.150Z,9.40
2017-09-19T02:11:28.550Z,9.50
2017-09-19T02:13:56.480Z,9.40
2017-09-19T02:16:22.956Z,9.40
2017-09-19T02:18:50.135Z,9.40
2017-09-19T02:21:16.579Z,9.40
2017-09-19T02:23:43.411Z,9.40
2017-09-19T02:26:09.880Z,9.40
2017-09-19T02:28:36.274Z,9.40
2017-09-19T02:31:04.139Z,9.30
2017-09-19T02:33:30.669Z,9.30
2017-09-19T02:35:57.106Z,9.40
2017-09-19T02:38:23.558Z,9.60
2017-09-19T02:40:50.010Z,9.60
2017-09-19T02:43:16.405Z,9.50
2017-09-19T02:45:42.817Z,9.40
2017-09-19T02:48:09.985Z,9.40
2017-09-19T02:50:37.134Z,9.40
2017-09-19T02:53:04.295Z,9.50
2017-09-19T02:55:30.698Z,9.50
2017-09-19T02:57:57.102Z,9.40
2017-09-19T03:00:23.539Z,9.40
2017-09-19T03:02:51.483Z,9.50
2017-09-19T03:05:17.959Z,9.50
2017-09-19T03:07:45.115Z,9.60
2017-09-19T03:10:11.555Z,9.60
2017-09-19T03:12:38.750Z,9.40
2017-09-19T03:15:05.170Z,9.40
2017-09-19T03:17:31.666Z,9.40
2017-09-19T03:19:59.471Z,9.40
2017-09-19T03:25:05.293Z,9.40
2017-09-19T03:27:31.850Z,9.40
2017-09-19T03:29:58.323Z,9.30
2017-09-19T03:32:24.965Z,9.40
2017-09-19T03:34:51.399Z,9.30
2017-09-19T03:37:17.799Z,9.30
2017-09-19T03:39:44.200Z,9.20
2017-09-19T03:42:10.656Z,9.20
2017-09-19T03:44:37.098Z,9.00
2017-09-19T03:47:03.498Z,9.10
2017-09-19T03:49:29.914Z,9.20
2017-09-19T03:51:56.341Z,9.30
2017-09-19T03:54:22.780Z,9.30
2017-09-19T03:56:49.179Z,9.40
2017-09-19T03:59:15.611Z,9.40
2017-09-19T04:01:42.045Z,9.40
2017-09-19T04:04:08.453Z,9.40
2017-09-19T04:06:35.670Z,9.40
2017-09-19T04:09:02.111Z,9.40
2017-09-19T04:11:28.578Z,9.40
2017-09-19T04:13:55.002Z,9.40
2017-09-19T04:16:22.316Z,9.50
2017-09-19T04:18:48.823Z,9.50
2017-09-19T04:21:15.238Z,9.50
2017-09-19T04:23:41.672Z,9.40
2017-09-19T04:26:08.143Z,9.40
2017-09-19T04:28:34.735Z,9.40
2017-09-19T04:31:01.289Z,9.50
2017-09-19T04:33:27.887Z,9.40
2017-09-19T04:35:55.048Z,9.50
2017-09-19T04:38:22.277Z,9.40
2017-09-19T04:40:49.449Z,9.40
2017-09-19T04:43:16.607Z,9.50
2017-09-19T04:45:43.029Z,9.40
2017-09-19T04:48:11.108Z,9.60
2017-09-19T04:50:37.526Z,9.50
2017-09-19T04:53:05.226Z,9.70
2017-09-19T04:55:31.781Z,9.70
2017-09-19T04:57:58.230Z,9.70
2017-09-19T05:00:24.759Z,9.70
2017-09-19T05:02:51.194Z,9.70
2017-09-19T05:05:17.647Z,9.80
2017-09-19T05:07:44.810Z,9.80
2017-09-19T05:10:13.119Z,9.90
2017-09-19T05:12:40.700Z,9.90
2017-09-19T05:15:07.123Z,9.90
2017-09-19T05:17:33.603Z,10.00
2017-09-19T05:20:00.884Z,9.80
2017-09-19T05:22:27.375Z,9.80
2017-09-19T05:24:54.566Z,9.80
2017-09-19T05:27:21.008Z,9.80
2017-09-19T05:29:47.495Z,9.90
2017-09-19T05:32:16.456Z,10.20
2017-09-19T05:34:42.871Z,10.20
2017-09-19T05:37:09.366Z,10.10
2017-09-19T05:39:35.838Z,10.20
2017-09-19T05:42:02.999Z,10.20
2017-09-19T05:44:29.508Z,10.20
2017-09-19T05:46:55.950Z,10.30
2017-09-19T05:49:22.418Z,10.50
2017-09-19T05:51:49.603Z,10.50
2017-09-19T05:54:16.043Z,10.50
2017-09-19T05:56:43.183Z,10.70
2017-09-19T05:59:10.346Z,10.70
2017-09-19T06:01:37.608Z,10.80
2017-09-19T06:04:04.045Z,10.80
2017-09-19T06:06:30.611Z,10.90
2017-09-19T06:09:09.249Z,10.80
2017-09-19T06:11:36.807Z,10.90
2017-09-19T06:14:03.571Z,11.00
2017-09-19T06:16:30.870Z,11.00
2017-09-19T06:18:57.404Z,11.00
2017-09-19T06:21:23.853Z,11.10
2017-09-19T06:23:50.298Z,11.10
2017-09-19T06:26:16.742Z,11.10
2017-09-19T06:28:43.303Z,11.20
2017-09-19T06:31:10.494Z,11.40
2017-09-19T06:33:37.943Z,11.40
2017-09-19T06:36:05.897Z,11.60
2017-09-19T06:38:33.133Z,11.70
2017-09-19T06:40:59.603Z,11.70
2017-09-19T06:43:26.087Z,11.80
2017-09-19T06:45:53.271Z,11.70
2017-09-19T06:48:19.690Z,11.70
2017-09-19T06:50:46.883Z,11.90
2017-09-19T06:53:13.342Z,11.90
2017-09-19T06:55:39.774Z,12.00
2017-09-19T06:58:06.190Z,12.10
2017-09-19T07:00:34.294Z,12.20
2017-09-19T07:03:01.726Z,12.20
2017-09-19T07:05:28.265Z,12.20
2017-09-19T07:07:55.454Z,12.30
2017-09-19T07:10:22.759Z,12.30
2017-09-19T07:12:49.227Z,12.30
2017-09-19T07:15:15.702Z,12.30
2017-09-19T07:17:42.187Z,12.30
2017-09-19T07:20:08.790Z,12.30
2017-09-19T07:22:35.723Z,12.40
2017-09-19T07:25:02.657Z,12.30
2017-09-19T07:27:30.628Z,12.50
2017-09-19T07:29:58.226Z,12.60
2017-09-19T07:32:25.716Z,12.50
2017-09-19T07:34:52.199Z,12.50
2017-09-19T07:37:18.838Z,12.60
2017-09-19T07:39:45.275Z,12.70
2017-09-19T07:42:12.531Z,12.70
2017-09-19T07:44:38.960Z,12.70
2017-09-19T07:47:05.463Z,12.90
2017-09-19T07:49:33.239Z,13.00
2017-09-19T07:52:00.570Z,13.00
2017-09-19T07:54:27.084Z,13.00
2017-09-19T07:56:53.894Z,13.10
2017-09-19T07:59:20.506Z,13.10
2017-09-19T08:01:46.975Z,13.20
2017-09-19T08:04:13.400Z,13.30
2017-09-19T08:06:39.819Z,13.20
2017-09-19T08:09:06.290Z,13.40
2017-09-19T08:11:33.603Z,13.50
2017-09-19T08:14:00.966Z,13.40
2017-09-19T08:16:28.222Z,13.50
2017-09-19T08:18:54.751Z,13.60
2017-09-19T08:21:21.291Z,13.70
2017-09-19T08:23:47.767Z,13.80
2017-09-19T08:26:14.374Z,13.90
2017-09-19T08:28:41.559Z,13.90
2017-09-19T08:31:08.751Z,13.90
2017-09-19T08:33:35.592Z,13.90
2017-09-19T08:36:02.838Z,14.00
2017-09-19T08:38:29.566Z,14.00
2017-09-19T08:40:55.988Z,14.10
2017-09-19T08:43:23.184Z,14.30
2017-09-19T08:45:49.643Z,14.30
2017-09-19T08:48:16.958Z,14.40
2017-09-19T08:50:43.368Z,14.40
2017-09-19T08:53:10.563Z,14.40
2017-09-19T08:55:37.149Z,14.50
2017-09-19T08:58:04.328Z,14.70
2017-09-19T09:00:31.161Z,14.70
2017-09-19T09:02:57.586Z,14.90
2017-09-19T09:05:24.121Z,14.90
2017-09-19T09:07:50.606Z,15.00
2017-09-19T09:10:17.027Z,15.00
2017-09-19T09:12:43.439Z,15.00
2017-09-19T09:15:09.882Z,15.00
2017-09-19T09:17:36.321Z,15.10
2017-09-19T09:20:02.833Z,15.30
2017-09-19T09:22:30.054Z,15.20
2017-09-19T09:24:56.494Z,15.20
2017-09-19T09:27:23.792Z,15.00
2017-09-19T09:29:50.281Z,15.10
2017-09-19T09:32:16.764Z,15.10
2017-09-19T09:34:43.196Z,15.20
2017-09-19T09:37:09.630Z,15.20
2017-09-19T09:39:36.070Z,15.20
2017-09-19T09:42:02.954Z,15.20
2017-09-19T09:44:30.167Z,15.30
2017-09-19T09:46:56.675Z,15.20
2017-09-19T09:49:23.276Z,15.40
2017-09-19T09:51:49.758Z,15.40
2017-09-19T09:54:16.211Z,15.50
2017-09-19T09:56:42.682Z,15.60
2017-09-19T09:59:09.867Z,15.50
2017-09-19T10:01:36.339Z,15.50
2017-09-19T10:04:02.798Z,15.50
2017-09-19T10:06:30.182Z,15.90
2017-09-19T10:08:56.619Z,15.90
2017-09-19T10:11:23.209Z,15.90
2017-09-19T10:13:50.388Z,16.00
2017-09-19T10:16:16.818Z,16.00
2017-09-19T10:18:43.267Z,16.10
2017-09-19T10:21:09.692Z,16.20
2017-09-19T10:23:36.325Z,16.30
2017-09-19T10:26:02.851Z,16.40
2017-09-19T10:28:30.087Z,16.60
2017-09-19T10:30:57.287Z,16.60
2017-09-19T10:33:23.927Z,16.60
2017-09-19T10:35:50.370Z,16.50
2017-09-19T10:38:16.799Z,16.50
2017-09-19T10:40:43.303Z,16.50
2017-09-19T10:43:09.770Z,16.50
2017-09-19T10:45:36.186Z,16.50
2017-09-19T10:48:02.650Z,16.50
2017-09-19T10:50:29.352Z,16.30
2017-09-19T10:52:55.808Z,16.10
2017-09-19T10:55:22.360Z,16.20
2017-09-19T10:57:50.177Z,16.10
2017-09-19T11:00:16.616Z,16.10
2017-09-19T11:02:43.022Z,16.20
2017-09-19T11:05:10.179Z,16.10
2017-09-19T11:07:37.360Z,16.30
2017-09-19T11:10:03.790Z,16.30
2017-09-19T11:12:30.341Z,16.30
2017-09-19T11:14:56.772Z,16.40
2017-09-19T11:17:23.301Z,16.50
2017-09-19T11:19:49.775Z,16.60
2017-09-19T11:22:17.402Z,16.70
2017-09-19T11:24:43.949Z,16.80
2017-09-19T11:27:10.403Z,16.90
2017-09-19T11:29:36.911Z,17.20
2017-09-19T11:32:03.326Z,17.20
2017-09-19T11:34:29.818Z,17.20
2017-09-19T11:36:57.069Z,17.60
2017-09-19T11:39:24.529Z,17.70
2017-09-19T11:41:51.023Z,17.70
2017-09-19T11:44:17.548Z,17.40
2017-09-19T11:46:43.987Z,17.10
2017-09-19T11:49:10.805Z,17.00
2017-09-19T11:51:37.343Z,17.10
2017-09-19T11:54:03.779Z,17.20
2017-09-19T11:56:30.315Z,17.40
2017-09-19T11:58:57.530Z,17.30
2017-09-19T12:01:24.191Z,17.30
2017-09-19T12:03:50.806Z,17.10
2017-09-19T12:06:17.993Z,16.80
2017-09-19T12:08:44.446Z,16.80
2017-09-19T12:11:10.898Z,16.60
2017-09-19T12:13:37.339Z,16.50
2017-09-19T12:16:03.769Z,16.70
2017-09-19T12:18:32.150Z,16.70
2017-09-19T12:20:58.994Z,16.80
2017-09-19T12:23:25.452Z,17.00
2017-09-19T12:25:52.654Z,17.20
2017-09-19T12:28:19.100Z,17.20
2017-09-19T12:30:46.514Z,17.20
2017-09-19T12:33:12.944Z,17.10
2017-09-19T12:35:39.366Z,17.20
2017-09-19T12:38:06.563Z,17.00
2017-09-19T12:40:33.227Z,17.00
2017-09-19T12:45:26.447Z,17.10
2017-09-19T12:47:52.908Z,16.90
2017-09-19T12:50:19.375Z,16.80
2017-09-19T12:52:45.861Z,16.60
2017-09-19T12:55:12.323Z,16.60
2017-09-19T12:57:39.819Z,16.40
2017-09-19T13:00:06.580Z,16.30
2017-09-19T13:02:33.243Z,16.30
2017-09-19T13:04:59.683Z,16.20
2017-09-19T13:07:26.292Z,16.20
2017-09-19T13:09:52.757Z,16.10
2017-09-19T13:12:19.188Z,16.10
2017-09-19T13:14:45.603Z,16.10
2017-09-19T13:17:12.903Z,16.00
2017-09-19T13:19:40.100Z,16.00
2017-09-19T13:22:06.591Z,15.90
2017-09-19T13:24:33.955Z,16.20
2017-09-19T13:27:00.371Z,16.20
2017-09-19T13:29:27.288Z,16.20
2017-09-19T13:32:05.985Z,16.10
2017-09-19T13:34:32.497Z,16.10
2017-09-19T13:36:59.023Z,16.20
2017-09-19T13:39:26.277Z,16.20
2017-09-19T13:41:53.691Z,16.10
2017-09-19T13:44:20.182Z,16.10
2017-09-19T13:46:46.604Z,16.10
2017-09-19T13:49:13.781Z,15.90
2017-09-19T13:51:40.280Z,15.90
2017-09-19T13:54:20.984Z,15.90
2017-09-19T13:57:00.697Z,15.80
2017-09-19T13:59:27.210Z,15.80
2017-09-19T14:01:54.394Z,15.90
2017-09-19T14:04:21.735Z,16.00
2017-09-19T14:06:48.910Z,16.00
2017-09-19T14:09:16.034Z,16.00
2017-09-19T14:11:42.557Z,16.00
2017-09-19T14:14:10.178Z,16.00
2017-09-19T14:16:37.396Z,16.00
2017-09-19T14:19:04.592Z,15.90
2017-09-19T14:21:32.120Z,15.90
2017-09-19T14:23:58.612Z,15.90
2017-09-19T14:26:25.053Z,16.00
2017-09-19T14:28:52.281Z,16.00
2017-09-19T14:31:20.340Z,16.00
2017-09-19T14:33:46.948Z,15.90
2017-09-19T14:36:13.922Z,15.90
2017-09-19T14:38:40.484Z,15.80
2017-09-19T14:41:06.926Z,15.80
2017-09-19T14:43:33.482Z,15.70
2017-09-19T14:46:00.932Z,15.60
2017-09-19T14:48:28.591Z,15.70
2017-09-19T14:50:55.091Z,15.70
2017-09-19T14:53:22.740Z,15.60
2017-09-19T14:55:50.292Z,15.60
2017-09-19T14:58:17.123Z,15.60
2017-09-19T15:00:43.889Z,15.70
2017-09-19T15:03:11.721Z,15.70
2017-09-19T15:05:38.645Z,15.60
2017-09-19T15:08:05.326Z,15.50
2017-09-19T15:10:31.956Z,15.50
2017-09-19T15:12:58.424Z,15.60
2017-09-19T15:15:24.940Z,15.60
2017-09-19T15:17:51.515Z,15.60
2017-09-19T15:20:18.146Z,15.60
2017-09-19T15:22:44.655Z,15.60
2017-09-19T15:25:11.099Z,15.50
2017-09-19T15:27:37.582Z,15.50
2017-09-19T15:30:04.536Z,15.50
2017-09-19T15:32:31.705Z,15.50
2017-09-19T15:34:58.140Z,15.50
2017-09-19T15:37:25.267Z,15.50
2017-09-19T15:39:51.859Z,15.50
2017-09-19T15:42:21.019Z,15.50
2017-09-19T15:44:47.643Z,15.50
2017-09-19T15:47:14.541Z,15.50
2017-09-19T15:49:41.941Z,15.30
2017-09-19T15:52:08.547Z,15.30
2017-09-19T15:54:35.805Z,15.30
2017-09-19T15:57:03.192Z,15.30
2017-09-19T15:59:29.843Z,15.30
2017-09-19T16:01:56.562Z,15.30
2017-09-19T16:04:24.308Z,15.30
2017-09-19T16:06:50.941Z,15.20
2017-09-19T16:09:18.119Z,15.10
2017-09-19T16:11:45.011Z,15.10
2017-09-19T16:14:12.394Z,15.10
2017-09-19T16:16:39.376Z,15.10
2017-09-19T16:19:05.842Z,15.10
2017-09-19T16:21:32.313Z,15.10
2017-09-19T16:23:58.783Z,15.00
2017-09-19T16:26:25.268Z,15.00
2017-09-19T16:28:52.863Z,14.90
2017-09-19T16:31:19.307Z,14.90
2017-09-19T16:33:45.899Z,14.90
2017-09-19T16:36:12.610Z,14.80
2017-09-19T16:38:39.889Z,14.80
2017-09-19T16:41:06.702Z,14.70
2017-09-19T16:43:34.832Z,14.80
2017-09-19T16:46:02.235Z,14.80
2017-09-19T16:48:28.834Z,14.80
2017-09-19T16:50:55.420Z,14.80
2017-09-19T16:53:22.651Z,14.80
2017-09-19T16:55:49.283Z,14.70
2017-09-19T16:58:15.845Z,14.60
2017-09-19T17:00:42.323Z,14.60
2017-09-19T17:03:08.725Z,14.70
2017-09-19T17:05:35.903Z,14.50
2017-09-19T17:08:03.259Z,14.50
2017-09-19T17:10:31.011Z,14.40
2017-09-19T17:12:57.463Z,14.40
2017-09-19T17:15:23.943Z,14.30
2017-09-19T17:17:51.879Z,14.30
2017-09-19T17:20:18.323Z,14.30
2017-09-19T17:22:44.968Z,14.40
2017-09-19T17:25:11.471Z,14.40
2017-09-19T17:27:38.069Z,14.40
2017-09-19T17:30:04.543Z,14.40
2017-09-19T17:32:31.144Z,14.40
2017-09-19T17:34:57.735Z,14.40
2017-09-19T17:37:24.257Z,14.40
2017-09-19T17:39:50.819Z,14.30
2017-09-19T17:42:18.801Z,14.30
2017-09-19T17:44:46.135Z,14.30
2017-09-19T17:47:13.390Z,14.30
2017-09-19T17:49:40.777Z,14.20
2017-09-19T17:52:08.074Z,14.20
2017-09-19T17:54:34.670Z,14.20
2017-09-19T17:57:02.027Z,14.30
2017-09-19T17:59:30.055Z,14.20
2017-09-19T18:01:56.514Z,14.20
2017-09-19T18:04:23.766Z,14.20
2017-09-19T18:06:53.216Z,14.20
2017-09-19T18:09:19.944Z,14.20
2017-09-19T18:11:46.735Z,14.10
2017-09-19T18:14:14.152Z,14.10
2017-09-19T18:16:40.771Z,14.10
2017-09-19T18:19:07.415Z,14.00
2017-09-19T18:21:34.084Z,14.00
2017-09-19T18:24:00.915Z,13.90
2017-09-19T18:26:27.417Z,14.00
2017-09-19T18:28:54.652Z,14.00
2017-09-19T18:31:21.101Z,13.90
2017-09-19T18:33:49.379Z,13.90
2017-09-19T18:36:16.091Z,13.90
2017-09-19T18:38:42.633Z,13.90
2017-09-19T18:41:09.149Z,13.90
2017-09-19T18:43:35.614Z,13.90
2017-09-19T18:46:02.836Z,13.90
2017-09-19T18:48:29.277Z,13.90
2017-09-19T18:50:55.738Z,13.90
2017-09-19T18:53:22.931Z,13.80
2017-09-19T18:55:49.387Z,13.80
2017-09-19T18:58:15.840Z,13.80
2017-09-19T19:00:42.701Z,13.80
2017-09-19T19:03:09.881Z,13.90
2017-09-19T19:05:36.322Z,13.80
2017-09-19T19:08:02.766Z,14.00
2017-09-19T19:10:29.225Z,14.00
2017-09-19T19:12:55.642Z,13.90
2017-09-19T19:15:22.129Z,13.90
2017-09-19T19:17:48.605Z,13.70
2017-09-19T19:20:15.052Z,13.50
2017-09-19T19:22:41.739Z,13.20
2017-09-19T19:25:08.225Z,13.10
2017-09-19T19:27:34.744Z,13.00
2017-09-19T19:30:01.306Z,12.90
2017-09-19T19:32:27.920Z,12.80
2017-09-19T19:34:54.431Z,12.90
2017-09-19T19:37:20.919Z,12.90
2017-09-19T19:39:48.100Z,12.90
2017-09-19T19:42:14.628Z,12.90
2017-09-19T19:44:41.423Z,12.90
2017-09-19T19:47:07.862Z,12.90
2017-09-19T19:49:34.492Z,12.90
2017-09-19T19:52:00.963Z,12.90
2017-09-19T19:54:28.375Z,12.90
2017-09-19T19:56:54.986Z,12.80
2017-09-19T19:59:21.973Z,12.80
2017-09-19T20:01:48.650Z,12.90
2017-09-19T20:04:15.874Z,12.90
2017-09-19T20:06:42.420Z,12.90
2017-09-19T20:09:09.763Z,12.90
2017-09-19T20:11:36.335Z,12.90
2017-09-19T20:14:04.068Z,12.80
2017-09-19T20:16:31.403Z,12.80
2017-09-19T20:18:57.836Z,12.80
2017-09-19T20:21:24.367Z,12.80
2017-09-19T20:23:50.820Z,12.80
2017-09-19T20:26:18.553Z,12.80
2017-09-19T20:28:46.436Z,12.70
2017-09-19T20:31:13.388Z,12.70
2017-09-19T20:33:40.611Z,12.70
2017-09-19T20:36:07.054Z,12.70
2017-09-19T20:38:34.067Z,12.70
2017-09-19T20:41:00.524Z,12.70
2017-09-19T20:43:27.258Z,12.70
2017-09-19T20:45:54.575Z,12.70
2017-09-19T20:48:21.901Z,12.70
2017-09-19T20:50:48.347Z,12.70
2017-09-19T20:53:16.361Z,12.80
2017-09-19T20:55:43.023Z,12.70
2017-09-19T20:58:09.448Z,12.90
2017-09-19T21:00:35.909Z,12.90
2017-09-19T21:03:03.475Z,12.90
2017-09-19T21:05:37.387Z,12.90
2017-09-19T21:08:09.927Z,12.90
2017-09-19T21:10:42.367Z,12.80
2017-09-19T21:13:15.564Z,12.80
2017-09-19T21:15:48.844Z,12.80
2017-09-19T21:18:21.560Z,12.80
2017-09-19T21:20:50.336Z,12.80
2017-09-19T21:23:16.758Z,12.80
2017-09-19T21:25:44.430Z,12.90
2017-09-19T21:28:10.935Z,12.80
2017-09-19T21:30:37.358Z,12.80
2017-09-19T21:33:03.767Z,12.80
2017-09-19T21:35:30.412Z,12.80
2017-09-19T21:37:57.628Z,12.80
2017-09-19T21:40:24.067Z,12.80
2017-09-19T21:42:50.495Z,12.80
2017-09-19T21:45:16.930Z,12.90
2017-09-19T21:47:43.592Z,12.90
2017-09-19T21:50:10.034Z,12.80
2017-09-19T21:52:36.451Z,12.80
2017-09-19T21:55:02.905Z,12.80
2017-09-19T21:57:29.355Z,12.60
2017-09-19T21:59:56.539Z,12.60
2017-09-19T22:02:23.120Z,12.60
2017-09-19T22:04:49.557Z,12.60
2017-09-19T22:07:16.027Z,12.50
2017-09-19T22:09:42.554Z,12.30
2017-09-19T22:12:08.987Z,12.30
2017-09-19T22:14:35.386Z,12.30
2017-09-19T22:17:01.837Z,12.40
2017-09-19T22:19:28.318Z,12.40
2017-09-19T22:21:54.767Z,12.50
2017-09-19T22:24:21.187Z,12.50
2017-09-19T22:26:47.643Z,12.40
2017-09-19T22:29:14.070Z,12.40
2017-09-19T22:31:40.502Z,12.40
2017-09-19T22:34:06.910Z,12.40
2017-09-19T22:36:33.336Z,12.40
2017-09-19T22:39:00.500Z,12.50
2017-09-19T22:41:26.948Z,12.50
2017-09-19T22:43:53.395Z,12.60
2017-09-19T22:46:19.802Z,12.60
2017-09-19T22:48:46.279Z,12.60
2017-09-19T22:51:12.707Z,12.60
2017-09-19T22:53:39.866Z,12.60
2017-09-19T22:56:06.302Z,12.70
2017-09-19T22:58:33.814Z,12.60
2017-09-19T23:01:00.252Z,12.60
2017-09-19T23:03:26.682Z,12.60
2017-09-19T23:05:53.145Z,12.60
2017-09-19T23:08:21.813Z,12.70
2017-09-19T23:10:48.280Z,12.70
2017-09-19T23:13:14.703Z,12.70
2017-09-19T23:15:41.152Z,12.60
2017-09-19T23:18:07.577Z,12.60
2017-09-19T23:20:34.096Z,12.60
2017-09-19T23:23:00.542Z,12.60
2017-09-19T23:25:27.074Z,12.60
2017-09-19T23:27:53.707Z,12.50
2017-09-19T23:30:20.168Z,12.60
2017-09-19T23:32:47.427Z,12.50
2017-09-19T23:35:14.631Z,12.50
2017-09-19T23:37:41.104Z,12.50
2017-09-19T23:40:09.031Z,12.40
2017-09-19T23:42:35.503Z,12.40
2017-09-19T23:45:01.934Z,12.50
2017-09-19T23:47:28.501Z,12.40
2017-09-19T23:49:54.979Z,12.40
2017-09-19T23:52:21.438Z,12.30
2017-09-19T23:54:47.867Z,12.40
2017-09-19T23:57:14.291Z,12.40
2017-09-19T23:59:41.440Z,12.40
